sensor_id;sensor_type;location;lat;lon;timestamp;P1;durP1;ratioP1;P2;durP2;ratioP2
52868;SDS011;39100;53.480;6.158;2023-04-24T00:00:23;0.93;;;0.20;;
52868;SDS011;39100;53.480;6.158;2023-04-24T00:02:49;0.40;;;0.10;;
52868;SDS011;39100;53.480;6.158;2023-04-24T00:05:15;0.73;;;0.10;;
52868;SDS011;39100;53.480;6.158;2023-04-24T00:07:42;1.58;;;0.20;;
52868;SDS011;39100;53.480;6.158;2023-04-24T00:10:09;0.65;;;0.17;;
52868;SDS011;39100;53.480;6.158;2023-04-24T00:12:35;1.15;;;0.28;;
52868;SDS011;39100;53.480;6.158;2023-04-24T00:15:01;0.60;;;0.20;;
52868;SDS011;39100;53.480;6.158;2023-04-24T00:17:28;0.20;;;0.10;;
52868;SDS011;39100;53.480;6.158;2023-04-24T00:19:53;0.30;;;0.20;;
52868;SDS011;39100;53.480;6.158;2023-04-24T00:22:26;2.35;;;0.20;;
52868;SDS011;39100;53.480;6.158;2023-04-24T00:24:52;0.20;;;0.20;;
52868;SDS011;39100;53.480;6.158;2023-04-24T00:27:18;1.10;;;0.30;;
52868;SDS011;39100;53.480;6.158;2023-04-24T00:29:43;0.80;;;0.40;;
52868;SDS011;39100;53.480;6.158;2023-04-24T00:32:09;1.20;;;0.50;;
52868;SDS011;39100;53.480;6.158;2023-04-24T00:34:35;0.80;;;0.70;;
52868;SDS011;39100;53.480;6.158;2023-04-24T00:37:15;1.23;;;0.85;;
52868;SDS011;39100;53.480;6.158;2023-04-24T00:39:41;1.30;;;0.50;;
52868;SDS011;39100;53.480;6.158;2023-04-24T00:42:07;1.00;;;0.82;;
52868;SDS011;39100;53.480;6.158;2023-04-24T00:44:33;0.75;;;0.68;;
52868;SDS011;39100;53.480;6.158;2023-04-24T00:46:59;0.60;;;0.60;;
52868;SDS011;39100;53.480;6.158;2023-04-24T00:49:26;1.67;;;0.82;;
52868;SDS011;39100;53.480;6.158;2023-04-24T00:51:52;1.30;;;0.70;;
52868;SDS011;39100;53.480;6.158;2023-04-24T00:54:19;1.13;;;0.65;;
52868;SDS011;39100;53.480;6.158;2023-04-24T00:56:44;1.35;;;0.60;;
52868;SDS011;39100;53.480;6.158;2023-04-24T00:59:11;0.70;;;0.70;;
52868;SDS011;39100;53.480;6.158;2023-04-24T01:01:38;0.88;;;0.60;;
52868;SDS011;39100;53.480;6.158;2023-04-24T01:04:06;0.80;;;0.80;;
52868;SDS011;39100;53.480;6.158;2023-04-24T01:06:34;0.55;;;0.50;;
52868;SDS011;39100;53.480;6.158;2023-04-24T01:09:02;0.68;;;0.60;;
52868;SDS011;39100;53.480;6.158;2023-04-24T01:11:27;0.93;;;0.63;;
52868;SDS011;39100;53.480;6.158;2023-04-24T01:13:54;0.80;;;0.70;;
52868;SDS011;39100;53.480;6.158;2023-04-24T01:16:21;0.77;;;0.73;;
52868;SDS011;39100;53.480;6.158;2023-04-24T01:18:47;0.95;;;0.82;;
52868;SDS011;39100;53.480;6.158;2023-04-24T01:21:15;1.42;;;1.10;;
52868;SDS011;39100;53.480;6.158;2023-04-24T01:23:43;1.10;;;0.90;;
52868;SDS011;39100;53.480;6.158;2023-04-24T01:26:09;1.70;;;0.85;;
52868;SDS011;39100;53.480;6.158;2023-04-24T01:28:34;1.05;;;0.90;;
52868;SDS011;39100;53.480;6.158;2023-04-24T01:31:00;1.17;;;1.08;;
52868;SDS011;39100;53.480;6.158;2023-04-24T01:33:26;0.93;;;0.93;;
52868;SDS011;39100;53.480;6.158;2023-04-24T01:35:51;1.30;;;1.20;;
52868;SDS011;39100;53.480;6.158;2023-04-24T01:38:17;1.23;;;1.13;;
52868;SDS011;39100;53.480;6.158;2023-04-24T01:40:43;1.00;;;0.90;;
52868;SDS011;39100;53.480;6.158;2023-04-24T01:43:08;1.58;;;1.02;;
52868;SDS011;39100;53.480;6.158;2023-04-24T01:45:34;1.02;;;0.93;;
52868;SDS011;39100;53.480;6.158;2023-04-24T01:48:00;0.93;;;0.80;;
52868;SDS011;39100;53.480;6.158;2023-04-24T01:50:26;2.10;;;0.75;;
52868;SDS011;39100;53.480;6.158;2023-04-24T01:52:51;1.10;;;1.00;;
52868;SDS011;39100;53.480;6.158;2023-04-24T01:55:17;1.70;;;0.93;;
52868;SDS011;39100;53.480;6.158;2023-04-24T01:57:42;0.73;;;0.73;;
52868;SDS011;39100;53.480;6.158;2023-04-24T02:00:08;1.13;;;1.00;;
52868;SDS011;39100;53.480;6.158;2023-04-24T02:02:37;1.02;;;0.93;;
52868;SDS011;39100;53.480;6.158;2023-04-24T02:05:05;0.85;;;0.60;;
52868;SDS011;39100;53.480;6.158;2023-04-24T02:07:31;0.90;;;0.75;;
52868;SDS011;39100;53.480;6.158;2023-04-24T02:09:57;0.68;;;0.68;;
52868;SDS011;39100;53.480;6.158;2023-04-24T02:12:23;1.05;;;0.95;;
52868;SDS011;39100;53.480;6.158;2023-04-24T02:14:48;1.85;;;0.95;;
52868;SDS011;39100;53.480;6.158;2023-04-24T02:17:14;1.65;;;1.10;;
52868;SDS011;39100;53.480;6.158;2023-04-24T02:19:41;0.98;;;0.98;;
52868;SDS011;39100;53.480;6.158;2023-04-24T02:22:06;0.93;;;0.70;;
52868;SDS011;39100;53.480;6.158;2023-04-24T02:24:32;1.73;;;1.30;;
52868;SDS011;39100;53.480;6.158;2023-04-24T02:26:58;3.33;;;1.20;;
52868;SDS011;39100;53.480;6.158;2023-04-24T02:29:23;0.85;;;0.77;;
52868;SDS011;39100;53.480;6.158;2023-04-24T02:31:49;0.93;;;0.85;;
52868;SDS011;39100;53.480;6.158;2023-04-24T02:34:15;1.20;;;1.10;;
52868;SDS011;39100;53.480;6.158;2023-04-24T02:36:41;0.90;;;0.70;;
52868;SDS011;39100;53.480;6.158;2023-04-24T02:39:06;1.90;;;0.90;;
52868;SDS011;39100;53.480;6.158;2023-04-24T02:41:33;1.50;;;1.20;;
52868;SDS011;39100;53.480;6.158;2023-04-24T02:43:58;1.15;;;1.15;;
52868;SDS011;39100;53.480;6.158;2023-04-24T02:46:24;1.00;;;1.00;;
52868;SDS011;39100;53.480;6.158;2023-04-24T02:48:50;2.53;;;2.10;;
52868;SDS011;39100;53.480;6.158;2023-04-24T02:51:15;1.50;;;1.15;;
52868;SDS011;39100;53.480;6.158;2023-04-24T02:53:41;1.05;;;0.95;;
52868;SDS011;39100;53.480;6.158;2023-04-24T02:56:07;2.15;;;1.38;;
52868;SDS011;39100;53.480;6.158;2023-04-24T02:58:32;1.90;;;1.27;;
52868;SDS011;39100;53.480;6.158;2023-04-24T03:00:58;1.70;;;1.60;;
52868;SDS011;39100;53.480;6.158;2023-04-24T03:03:23;1.52;;;1.17;;
52868;SDS011;39100;53.480;6.158;2023-04-24T03:05:50;1.58;;;1.25;;
52868;SDS011;39100;53.480;6.158;2023-04-24T03:08:15;1.35;;;1.20;;
52868;SDS011;39100;53.480;6.158;2023-04-24T03:10:41;2.60;;;1.20;;
52868;SDS011;39100;53.480;6.158;2023-04-24T03:13:06;1.73;;;1.10;;
52868;SDS011;39100;53.480;6.158;2023-04-24T03:15:32;2.38;;;1.23;;
52868;SDS011;39100;53.480;6.158;2023-04-24T03:17:58;1.85;;;1.10;;
52868;SDS011;39100;53.480;6.158;2023-04-24T03:20:23;1.48;;;1.10;;
52868;SDS011;39100;53.480;6.158;2023-04-24T03:22:49;2.10;;;1.20;;
52868;SDS011;39100;53.480;6.158;2023-04-24T03:25:14;2.03;;;1.17;;
52868;SDS011;39100;53.480;6.158;2023-04-24T03:27:40;1.77;;;1.10;;
52868;SDS011;39100;53.480;6.158;2023-04-24T03:30:06;1.50;;;1.40;;
52868;SDS011;39100;53.480;6.158;2023-04-24T03:32:32;1.95;;;1.20;;
52868;SDS011;39100;53.480;6.158;2023-04-24T03:34:58;1.52;;;1.13;;
52868;SDS011;39100;53.480;6.158;2023-04-24T03:37:24;2.35;;;1.17;;
52868;SDS011;39100;53.480;6.158;2023-04-24T03:39:49;2.10;;;1.23;;
52868;SDS011;39100;53.480;6.158;2023-04-24T03:42:15;2.92;;;1.10;;
52868;SDS011;39100;53.480;6.158;2023-04-24T03:44:40;1.80;;;1.13;;
52868;SDS011;39100;53.480;6.158;2023-04-24T03:47:06;3.75;;;1.17;;
52868;SDS011;39100;53.480;6.158;2023-04-24T03:49:32;3.35;;;0.90;;
52868;SDS011;39100;53.480;6.158;2023-04-24T03:51:57;1.92;;;1.10;;
52868;SDS011;39100;53.480;6.158;2023-04-24T03:54:23;1.73;;;1.00;;
52868;SDS011;39100;53.480;6.158;2023-04-24T03:56:48;1.23;;;0.70;;
52868;SDS011;39100;53.480;6.158;2023-04-24T03:59:14;0.80;;;0.57;;
52868;SDS011;39100;53.480;6.158;2023-04-24T04:01:39;0.60;;;0.43;;
52868;SDS011;39100;53.480;6.158;2023-04-24T04:04:05;2.03;;;0.50;;
52868;SDS011;39100;53.480;6.158;2023-04-24T04:06:32;0.25;;;0.20;;
52868;SDS011;39100;53.480;6.158;2023-04-24T04:08:58;0.85;;;0.55;;
52868;SDS011;39100;53.480;6.158;2023-04-24T04:11:25;0.50;;;0.20;;
52868;SDS011;39100;53.480;6.158;2023-04-24T04:13:50;2.00;;;0.30;;
52868;SDS011;39100;53.480;6.158;2023-04-24T04:16:16;0.75;;;0.28;;
52868;SDS011;39100;53.480;6.158;2023-04-24T04:18:42;0.65;;;0.60;;
52868;SDS011;39100;53.480;6.158;2023-04-24T04:21:08;1.25;;;0.50;;
52868;SDS011;39100;53.480;6.158;2023-04-24T04:23:34;0.70;;;0.50;;
52868;SDS011;39100;53.480;6.158;2023-04-24T04:25:59;0.98;;;0.60;;
52868;SDS011;39100;53.480;6.158;2023-04-24T04:28:26;2.10;;;0.70;;
52868;SDS011;39100;53.480;6.158;2023-04-24T04:30:52;0.55;;;0.40;;
52868;SDS011;39100;53.480;6.158;2023-04-24T04:33:19;0.43;;;0.40;;
52868;SDS011;39100;53.480;6.158;2023-04-24T04:35:45;2.78;;;0.70;;
52868;SDS011;39100;53.480;6.158;2023-04-24T04:38:14;3.92;;;0.77;;
52868;SDS011;39100;53.480;6.158;2023-04-24T04:40:40;0.88;;;0.45;;
52868;SDS011;39100;53.480;6.158;2023-04-24T04:43:06;0.77;;;0.40;;
52868;SDS011;39100;53.480;6.158;2023-04-24T04:45:31;0.90;;;0.60;;
52868;SDS011;39100;53.480;6.158;2023-04-24T04:47:59;1.00;;;0.45;;
52868;SDS011;39100;53.480;6.158;2023-04-24T04:50:26;1.10;;;0.70;;
52868;SDS011;39100;53.480;6.158;2023-04-24T04:52:52;1.05;;;0.65;;
52868;SDS011;39100;53.480;6.158;2023-04-24T04:55:17;2.08;;;0.95;;
52868;SDS011;39100;53.480;6.158;2023-04-24T04:57:45;0.57;;;0.40;;
52868;SDS011;39100;53.480;6.158;2023-04-24T05:00:13;0.50;;;0.20;;
52868;SDS011;39100;53.480;6.158;2023-04-24T05:02:39;0.40;;;0.30;;
52868;SDS011;39100;53.480;6.158;2023-04-24T05:05:05;1.20;;;0.50;;
52868;SDS011;39100;53.480;6.158;2023-04-24T05:07:31;0.90;;;0.20;;
52868;SDS011;39100;53.480;6.158;2023-04-24T05:09:57;2.17;;;0.20;;
52868;SDS011;39100;53.480;6.158;2023-04-24T05:12:23;1.13;;;0.20;;
52868;SDS011;39100;53.480;6.158;2023-04-24T05:14:48;2.05;;;0.35;;
52868;SDS011;39100;53.480;6.158;2023-04-24T05:17:14;0.70;;;0.40;;
52868;SDS011;39100;53.480;6.158;2023-04-24T05:19:40;0.30;;;0.15;;
52868;SDS011;39100;53.480;6.158;2023-04-24T05:22:06;0.95;;;0.15;;
52868;SDS011;39100;53.480;6.158;2023-04-24T05:24:34;0.50;;;0.28;;
52868;SDS011;39100;53.480;6.158;2023-04-24T05:27:01;0.30;;;0.30;;
52868;SDS011;39100;53.480;6.158;2023-04-24T05:29:29;0.63;;;0.35;;
52868;SDS011;39100;53.480;6.158;2023-04-24T05:31:56;0.68;;;0.30;;
52868;SDS011;39100;53.480;6.158;2023-04-24T05:34:22;0.65;;;0.43;;
52868;SDS011;39100;53.480;6.158;2023-04-24T05:36:48;1.25;;;0.47;;
52868;SDS011;39100;53.480;6.158;2023-04-24T05:39:14;0.32;;;0.30;;
52868;SDS011;39100;53.480;6.158;2023-04-24T05:41:40;0.57;;;0.32;;
52868;SDS011;39100;53.480;6.158;2023-04-24T05:44:05;0.40;;;0.30;;
52868;SDS011;39100;53.480;6.158;2023-04-24T05:46:31;1.13;;;0.17;;
52868;SDS011;39100;53.480;6.158;2023-04-24T05:48:57;0.68;;;0.20;;
52868;SDS011;39100;53.480;6.158;2023-04-24T05:51:23;0.40;;;0.20;;
52868;SDS011;39100;53.480;6.158;2023-04-24T05:53:48;1.50;;;0.40;;
52868;SDS011;39100;53.480;6.158;2023-04-24T05:56:14;0.20;;;0.10;;
52868;SDS011;39100;53.480;6.158;2023-04-24T05:58:41;2.38;;;0.20;;
52868;SDS011;39100;53.480;6.158;2023-04-24T06:01:06;0.22;;;0.20;;
52868;SDS011;39100;53.480;6.158;2023-04-24T06:03:32;0.57;;;0.20;;
52868;SDS011;39100;53.480;6.158;2023-04-24T06:05:57;0.32;;;0.20;;
52868;SDS011;39100;53.480;6.158;2023-04-24T06:08:23;0.22;;;0.10;;
52868;SDS011;39100;53.480;6.158;2023-04-24T06:10:49;0.50;;;0.22;;
52868;SDS011;39100;53.480;6.158;2023-04-24T06:13:15;0.73;;;0.20;;
52868;SDS011;39100;53.480;6.158;2023-04-24T06:15:41;1.08;;;0.25;;
52868;SDS011;39100;53.480;6.158;2023-04-24T06:18:07;0.75;;;0.17;;
52868;SDS011;39100;53.480;6.158;2023-04-24T06:20:35;1.42;;;0.20;;
52868;SDS011;39100;53.480;6.158;2023-04-24T06:23:00;0.32;;;0.20;;
52868;SDS011;39100;53.480;6.158;2023-04-24T06:25:26;1.10;;;0.08;;
52868;SDS011;39100;53.480;6.158;2023-04-24T06:27:52;2.78;;;0.90;;
52868;SDS011;39100;53.480;6.158;2023-04-24T06:30:19;0.28;;;0.20;;
52868;SDS011;39100;53.480;6.158;2023-04-24T06:32:44;0.20;;;0.20;;
52868;SDS011;39100;53.480;6.158;2023-04-24T06:35:10;1.05;;;0.20;;
52868;SDS011;39100;53.480;6.158;2023-04-24T06:37:37;2.08;;;0.40;;
52868;SDS011;39100;53.480;6.158;2023-04-24T06:40:06;1.08;;;0.17;;
52868;SDS011;39100;53.480;6.158;2023-04-24T06:42:33;0.50;;;0.10;;
52868;SDS011;39100;53.480;6.158;2023-04-24T06:44:59;0.15;;;0.10;;
52868;SDS011;39100;53.480;6.158;2023-04-24T06:47:25;0.73;;;0.20;;
52868;SDS011;39100;53.480;6.158;2023-04-24T06:49:51;0.85;;;0.30;;
52868;SDS011;39100;53.480;6.158;2023-04-24T06:52:17;1.55;;;0.28;;
52868;SDS011;39100;53.480;6.158;2023-04-24T06:54:43;1.60;;;0.32;;
52868;SDS011;39100;53.480;6.158;2023-04-24T06:57:09;1.10;;;0.47;;
52868;SDS011;39100;53.480;6.158;2023-04-24T06:59:35;0.25;;;0.20;;
52868;SDS011;39100;53.480;6.158;2023-04-24T07:02:01;0.65;;;0.40;;
52868;SDS011;39100;53.480;6.158;2023-04-24T07:04:27;0.50;;;0.50;;
52868;SDS011;39100;53.480;6.158;2023-04-24T07:06:53;0.68;;;0.63;;
52868;SDS011;39100;53.480;6.158;2023-04-24T07:09:21;2.70;;;1.67;;
52868;SDS011;39100;53.480;6.158;2023-04-24T07:11:48;3.20;;;1.30;;
52868;SDS011;39100;53.480;6.158;2023-04-24T07:14:14;3.30;;;1.58;;
52868;SDS011;39100;53.480;6.158;2023-04-24T07:16:40;4.03;;;1.50;;
52868;SDS011;39100;53.480;6.158;2023-04-24T07:19:06;3.53;;;2.25;;
52868;SDS011;39100;53.480;6.158;2023-04-24T07:21:32;5.10;;;2.28;;
52868;SDS011;39100;53.480;6.158;2023-04-24T07:23:58;3.85;;;1.85;;
52868;SDS011;39100;53.480;6.158;2023-04-24T07:26:23;4.43;;;2.15;;
52868;SDS011;39100;53.480;6.158;2023-04-24T07:28:50;4.45;;;2.42;;
52868;SDS011;39100;53.480;6.158;2023-04-24T07:31:16;5.65;;;2.47;;
52868;SDS011;39100;53.480;6.158;2023-04-24T07:33:41;3.20;;;2.40;;
52868;SDS011;39100;53.480;6.158;2023-04-24T07:36:07;5.80;;;2.95;;
52868;SDS011;39100;53.480;6.158;2023-04-24T07:38:32;5.18;;;2.50;;
52868;SDS011;39100;53.480;6.158;2023-04-24T07:40:58;5.75;;;3.42;;
52868;SDS011;39100;53.480;6.158;2023-04-24T07:43:24;4.70;;;2.55;;
52868;SDS011;39100;53.480;6.158;2023-04-24T07:45:50;7.53;;;3.90;;
52868;SDS011;39100;53.480;6.158;2023-04-24T07:48:16;3.80;;;2.20;;
52868;SDS011;39100;53.480;6.158;2023-04-24T07:50:42;4.90;;;2.20;;
52868;SDS011;39100;53.480;6.158;2023-04-24T07:53:08;3.70;;;1.98;;
52868;SDS011;39100;53.480;6.158;2023-04-24T07:55:34;2.42;;;1.52;;
52868;SDS011;39100;53.480;6.158;2023-04-24T07:58:00;4.68;;;1.95;;
52868;SDS011;39100;53.480;6.158;2023-04-24T08:00:25;3.15;;;1.33;;
52868;SDS011;39100;53.480;6.158;2023-04-24T08:02:51;2.50;;;1.67;;
52868;SDS011;39100;53.480;6.158;2023-04-24T08:05:16;2.35;;;1.48;;
52868;SDS011;39100;53.480;6.158;2023-04-24T08:07:42;3.38;;;1.70;;
52868;SDS011;39100;53.480;6.158;2023-04-24T08:10:09;3.58;;;1.63;;
52868;SDS011;39100;53.480;6.158;2023-04-24T08:12:35;3.95;;;2.10;;
52868;SDS011;39100;53.480;6.158;2023-04-24T08:15:02;2.65;;;1.92;;
52868;SDS011;39100;53.480;6.158;2023-04-24T08:17:27;3.78;;;1.65;;
52868;SDS011;39100;53.480;6.158;2023-04-24T08:19:53;2.00;;;1.50;;
52868;SDS011;39100;53.480;6.158;2023-04-24T08:22:26;3.92;;;1.80;;
52868;SDS011;39100;53.480;6.158;2023-04-24T08:24:55;3.70;;;1.80;;
52868;SDS011;39100;53.480;6.158;2023-04-24T08:27:22;5.45;;;1.80;;
52868;SDS011;39100;53.480;6.158;2023-04-24T08:29:52;2.00;;;1.48;;
52868;SDS011;39100;53.480;6.158;2023-04-24T08:32:18;2.25;;;1.55;;
52868;SDS011;39100;53.480;6.158;2023-04-24T08:34:44;3.33;;;1.65;;
52868;SDS011;39100;53.480;6.158;2023-04-24T08:37:09;4.43;;;1.65;;
52868;SDS011;39100;53.480;6.158;2023-04-24T08:39:35;3.85;;;1.60;;
52868;SDS011;39100;53.480;6.158;2023-04-24T08:42:01;4.10;;;1.75;;
52868;SDS011;39100;53.480;6.158;2023-04-24T08:44:32;1.70;;;1.45;;
52868;SDS011;39100;53.480;6.158;2023-04-24T08:46:59;3.05;;;1.38;;
52868;SDS011;39100;53.480;6.158;2023-04-24T08:49:26;3.22;;;2.03;;
52868;SDS011;39100;53.480;6.158;2023-04-24T08:51:53;2.95;;;1.70;;
52868;SDS011;39100;53.480;6.158;2023-04-24T08:54:20;3.17;;;1.58;;
52868;SDS011;39100;53.480;6.158;2023-04-24T08:56:47;2.40;;;1.70;;
52868;SDS011;39100;53.480;6.158;2023-04-24T08:59:16;3.47;;;1.38;;
52868;SDS011;39100;53.480;6.158;2023-04-24T09:01:43;3.58;;;1.40;;
52868;SDS011;39100;53.480;6.158;2023-04-24T09:04:12;6.90;;;1.85;;
52868;SDS011;39100;53.480;6.158;2023-04-24T09:06:41;2.17;;;1.15;;
52868;SDS011;39100;53.480;6.158;2023-04-24T09:09:07;3.78;;;1.45;;
52868;SDS011;39100;53.480;6.158;2023-04-24T09:11:34;3.28;;;1.38;;
52868;SDS011;39100;53.480;6.158;2023-04-24T09:14:01;7.82;;;1.48;;
52868;SDS011;39100;53.480;6.158;2023-04-24T09:16:27;2.83;;;1.20;;
52868;SDS011;39100;53.480;6.158;2023-04-24T09:18:53;4.50;;;1.52;;
52868;SDS011;39100;53.480;6.158;2023-04-24T09:21:20;2.47;;;1.23;;
52868;SDS011;39100;53.480;6.158;2023-04-24T09:23:47;1.35;;;0.82;;
52868;SDS011;39100;53.480;6.158;2023-04-24T09:26:24;1.55;;;0.88;;
52868;SDS011;39100;53.480;6.158;2023-04-24T09:28:50;4.30;;;1.20;;
52868;SDS011;39100;53.480;6.158;2023-04-24T09:31:18;3.22;;;1.50;;
52868;SDS011;39100;53.480;6.158;2023-04-24T09:33:59;3.95;;;1.08;;
52868;SDS011;39100;53.480;6.158;2023-04-24T09:37:01;5.22;;;1.50;;
52868;SDS011;39100;53.480;6.158;2023-04-24T09:39:20;2.88;;;1.20;;
52868;SDS011;39100;53.480;6.158;2023-04-24T09:41:49;2.05;;;1.25;;
52868;SDS011;39100;53.480;6.158;2023-04-24T09:44:22;3.03;;;1.38;;
52868;SDS011;39100;53.480;6.158;2023-04-24T09:46:49;3.28;;;1.00;;
52868;SDS011;39100;53.480;6.158;2023-04-24T09:49:19;3.30;;;0.93;;
52868;SDS011;39100;53.480;6.158;2023-04-24T09:51:49;2.20;;;1.15;;
52868;SDS011;39100;53.480;6.158;2023-04-24T09:54:17;1.85;;;0.80;;
52868;SDS011;39100;53.480;6.158;2023-04-24T09:56:45;3.67;;;1.00;;
52868;SDS011;39100;53.480;6.158;2023-04-24T09:59:16;2.83;;;0.93;;
52868;SDS011;39100;53.480;6.158;2023-04-24T10:01:43;1.48;;;0.73;;
52868;SDS011;39100;53.480;6.158;2023-04-24T10:04:19;2.53;;;0.73;;
52868;SDS011;39100;53.480;6.158;2023-04-24T10:06:49;2.10;;;1.00;;
52868;SDS011;39100;53.480;6.158;2023-04-24T10:09:17;2.75;;;0.70;;
52868;SDS011;39100;53.480;6.158;2023-04-24T10:11:44;3.60;;;0.95;;
52868;SDS011;39100;53.480;6.158;2023-04-24T10:14:18;2.58;;;0.75;;
52868;SDS011;39100;53.480;6.158;2023-04-24T10:16:48;1.75;;;0.70;;
52868;SDS011;39100;53.480;6.158;2023-04-24T10:19:14;1.73;;;0.85;;
52868;SDS011;39100;53.480;6.158;2023-04-24T10:21:41;4.10;;;1.05;;
52868;SDS011;39100;53.480;6.158;2023-04-24T10:24:14;1.48;;;0.77;;
52868;SDS011;39100;53.480;6.158;2023-04-24T10:26:45;1.65;;;0.70;;
52868;SDS011;39100;53.480;6.158;2023-04-24T10:29:13;1.25;;;0.80;;
52868;SDS011;39100;53.480;6.158;2023-04-24T10:31:40;2.78;;;0.77;;
52868;SDS011;39100;53.480;6.158;2023-04-24T10:34:07;3.58;;;0.73;;
52868;SDS011;39100;53.480;6.158;2023-04-24T10:36:35;1.83;;;0.80;;
52868;SDS011;39100;53.480;6.158;2023-04-24T10:39:06;3.63;;;1.63;;
52868;SDS011;39100;53.480;6.158;2023-04-24T10:41:33;4.40;;;0.70;;
52868;SDS011;39100;53.480;6.158;2023-04-24T10:46:31;4.68;;;0.70;;
52868;SDS011;39100;53.480;6.158;2023-04-24T10:48:57;4.63;;;1.10;;
52868;SDS011;39100;53.480;6.158;2023-04-24T10:51:24;4.90;;;0.80;;
52868;SDS011;39100;53.480;6.158;2023-04-24T10:54:26;5.22;;;0.95;;
52868;SDS011;39100;53.480;6.158;2023-04-24T10:56:52;1.60;;;0.40;;
52868;SDS011;39100;53.480;6.158;2023-04-24T10:59:25;2.42;;;0.65;;
52868;SDS011;39100;53.480;6.158;2023-04-24T11:01:54;2.22;;;1.05;;
52868;SDS011;39100;53.480;6.158;2023-04-24T11:04:30;1.55;;;0.60;;
52868;SDS011;39100;53.480;6.158;2023-04-24T11:06:56;2.75;;;0.60;;
52868;SDS011;39100;53.480;6.158;2023-04-24T11:09:22;3.10;;;0.82;;
52868;SDS011;39100;53.480;6.158;2023-04-24T11:12:08;1.77;;;0.70;;
52868;SDS011;39100;53.480;6.158;2023-04-24T11:17:29;2.63;;;0.77;;
52868;SDS011;39100;53.480;6.158;2023-04-24T11:20:10;1.33;;;0.60;;
52868;SDS011;39100;53.480;6.158;2023-04-24T11:22:38;1.10;;;0.30;;
52868;SDS011;39100;53.480;6.158;2023-04-24T11:25:07;0.70;;;0.60;;
52868;SDS011;39100;53.480;6.158;2023-04-24T11:30:07;2.42;;;0.38;;
52868;SDS011;39100;53.480;6.158;2023-04-24T11:37:50;1.20;;;0.32;;
52868;SDS011;39100;53.480;6.158;2023-04-24T11:40:17;1.30;;;0.30;;
52868;SDS011;39100;53.480;6.158;2023-04-24T11:42:46;0.88;;;0.32;;
52868;SDS011;39100;53.480;6.158;2023-04-24T11:47:39;3.20;;;0.43;;
52868;SDS011;39100;53.480;6.158;2023-04-24T11:50:06;0.90;;;0.30;;
52868;SDS011;39100;53.480;6.158;2023-04-24T11:52:36;0.63;;;0.22;;
52868;SDS011;39100;53.480;6.158;2023-04-24T11:55:03;2.67;;;0.70;;
52868;SDS011;39100;53.480;6.158;2023-04-24T11:57:29;3.58;;;0.57;;
52868;SDS011;39100;53.480;6.158;2023-04-24T11:59:59;3.03;;;0.30;;
52868;SDS011;39100;53.480;6.158;2023-04-24T12:02:26;0.57;;;0.20;;
52868;SDS011;39100;53.480;6.158;2023-04-24T12:04:55;1.48;;;0.65;;
52868;SDS011;39100;53.480;6.158;2023-04-24T12:07:21;0.63;;;0.30;;
52868;SDS011;39100;53.480;6.158;2023-04-24T12:09:48;0.38;;;0.32;;
52868;SDS011;39100;53.480;6.158;2023-04-24T12:14:49;1.98;;;0.38;;
52868;SDS011;39100;53.480;6.158;2023-04-24T12:17:23;0.30;;;0.20;;
52868;SDS011;39100;53.480;6.158;2023-04-24T12:19:52;2.78;;;0.47;;
52868;SDS011;39100;53.480;6.158;2023-04-24T12:22:27;0.93;;;0.20;;
52868;SDS011;39100;53.480;6.158;2023-04-24T12:27:22;2.88;;;0.73;;
52868;SDS011;39100;53.480;6.158;2023-04-24T12:29:58;1.15;;;0.10;;
52868;SDS011;39100;53.480;6.158;2023-04-24T12:32:24;1.95;;;0.20;;
52868;SDS011;39100;53.480;6.158;2023-04-24T12:34:50;1.52;;;0.32;;
52868;SDS011;39100;53.480;6.158;2023-04-24T12:37:17;0.73;;;0.20;;
52868;SDS011;39100;53.480;6.158;2023-04-24T12:42:31;1.40;;;0.65;;
52868;SDS011;39100;53.480;6.158;2023-04-24T12:44:58;1.13;;;0.25;;
52868;SDS011;39100;53.480;6.158;2023-04-24T12:47:26;1.17;;;0.30;;
52868;SDS011;39100;53.480;6.158;2023-04-24T12:49:52;1.52;;;0.43;;
52868;SDS011;39100;53.480;6.158;2023-04-24T12:52:25;3.35;;;0.22;;
52868;SDS011;39100;53.480;6.158;2023-04-24T12:54:55;3.25;;;0.40;;
52868;SDS011;39100;53.480;6.158;2023-04-24T12:57:22;1.17;;;0.20;;
52868;SDS011;39100;53.480;6.158;2023-04-24T12:59:49;0.80;;;0.20;;
52868;SDS011;39100;53.480;6.158;2023-04-24T13:02:15;2.85;;;0.20;;
52868;SDS011;39100;53.480;6.158;2023-04-24T13:04:44;3.10;;;0.45;;
52868;SDS011;39100;53.480;6.158;2023-04-24T13:07:11;1.27;;;0.45;;
52868;SDS011;39100;53.480;6.158;2023-04-24T13:09:37;1.67;;;0.40;;
52868;SDS011;39100;53.480;6.158;2023-04-24T13:12:03;0.25;;;0.15;;
52868;SDS011;39100;53.480;6.158;2023-04-24T13:14:30;1.02;;;0.30;;
52868;SDS011;39100;53.480;6.158;2023-04-24T13:16:56;0.43;;;0.28;;
52868;SDS011;39100;53.480;6.158;2023-04-24T13:19:23;1.17;;;0.20;;
52868;SDS011;39100;53.480;6.158;2023-04-24T13:21:51;2.33;;;0.50;;
52868;SDS011;39100;53.480;6.158;2023-04-24T13:24:17;2.20;;;0.80;;
52868;SDS011;39100;53.480;6.158;2023-04-24T13:26:42;1.17;;;0.68;;
52868;SDS011;39100;53.480;6.158;2023-04-24T13:29:08;3.53;;;0.30;;
52868;SDS011;39100;53.480;6.158;2023-04-24T13:31:34;2.25;;;0.35;;
52868;SDS011;39100;53.480;6.158;2023-04-24T13:34:00;2.08;;;0.55;;
52868;SDS011;39100;53.480;6.158;2023-04-24T13:36:26;2.30;;;0.57;;
52868;SDS011;39100;53.480;6.158;2023-04-24T13:38:51;2.90;;;0.63;;
52868;SDS011;39100;53.480;6.158;2023-04-24T13:41:17;4.05;;;0.63;;
52868;SDS011;39100;53.480;6.158;2023-04-24T13:43:42;1.67;;;0.30;;
52868;SDS011;39100;53.480;6.158;2023-04-24T13:46:08;5.63;;;0.40;;
52868;SDS011;39100;53.480;6.158;2023-04-24T13:48:34;1.63;;;0.50;;
52868;SDS011;39100;53.480;6.158;2023-04-24T13:50:59;4.10;;;1.13;;
52868;SDS011;39100;53.480;6.158;2023-04-24T13:53:25;2.90;;;0.35;;
52868;SDS011;39100;53.480;6.158;2023-04-24T13:55:50;2.17;;;0.40;;
52868;SDS011;39100;53.480;6.158;2023-04-24T13:58:16;2.83;;;0.40;;
52868;SDS011;39100;53.480;6.158;2023-04-24T14:00:42;1.17;;;0.38;;
52868;SDS011;39100;53.480;6.158;2023-04-24T14:03:08;2.22;;;0.30;;
52868;SDS011;39100;53.480;6.158;2023-04-24T14:05:33;2.70;;;0.43;;
52868;SDS011;39100;53.480;6.158;2023-04-24T14:07:59;1.27;;;0.40;;
52868;SDS011;39100;53.480;6.158;2023-04-24T14:10:25;3.38;;;0.60;;
52868;SDS011;39100;53.480;6.158;2023-04-24T14:12:52;2.63;;;0.63;;
52868;SDS011;39100;53.480;6.158;2023-04-24T14:15:18;5.07;;;0.73;;
52868;SDS011;39100;53.480;6.158;2023-04-24T14:17:43;2.78;;;1.33;;
52868;SDS011;39100;53.480;6.158;2023-04-24T14:20:09;5.60;;;2.28;;
52868;SDS011;39100;53.480;6.158;2023-04-24T14:22:37;7.00;;;1.13;;
52868;SDS011;39100;53.480;6.158;2023-04-24T14:25:03;4.95;;;1.55;;
52868;SDS011;39100;53.480;6.158;2023-04-24T14:27:30;4.43;;;1.13;;
52868;SDS011;39100;53.480;6.158;2023-04-24T14:29:57;6.22;;;1.73;;
52868;SDS011;39100;53.480;6.158;2023-04-24T14:32:22;2.95;;;0.60;;
52868;SDS011;39100;53.480;6.158;2023-04-24T14:34:48;2.15;;;0.68;;
52868;SDS011;39100;53.480;6.158;2023-04-24T14:37:14;2.17;;;0.90;;
52868;SDS011;39100;53.480;6.158;2023-04-24T14:39:40;1.77;;;0.70;;
52868;SDS011;39100;53.480;6.158;2023-04-24T14:42:05;3.97;;;1.00;;
52868;SDS011;39100;53.480;6.158;2023-04-24T14:44:31;3.70;;;0.93;;
52868;SDS011;39100;53.480;6.158;2023-04-24T14:46:57;2.40;;;0.85;;
52868;SDS011;39100;53.480;6.158;2023-04-24T14:49:23;1.90;;;0.50;;
52868;SDS011;39100;53.480;6.158;2023-04-24T14:51:49;2.45;;;0.65;;
52868;SDS011;39100;53.480;6.158;2023-04-24T14:54:14;3.97;;;1.00;;
52868;SDS011;39100;53.480;6.158;2023-04-24T14:56:40;5.18;;;1.33;;
52868;SDS011;39100;53.480;6.158;2023-04-24T14:59:07;2.08;;;0.80;;
52868;SDS011;39100;53.480;6.158;2023-04-24T15:01:33;7.20;;;1.10;;
52868;SDS011;39100;53.480;6.158;2023-04-24T15:03:59;5.57;;;1.30;;
52868;SDS011;39100;53.480;6.158;2023-04-24T15:06:24;5.15;;;1.33;;
52868;SDS011;39100;53.480;6.158;2023-04-24T15:08:50;9.75;;;2.15;;